Time;durP1;ratioP1;P1;durP2;ratioP2;P2;SDS_P1;SDS_P2;PMS_P1;PMS_P2;Temp;Humidity;BMP_temperature;BMP_pressure;BME280_temperature;BME280_humidity;BME280_pressure;Samples;Min_cycle;Max_cycle;Signal;HPM_P1;HPM_P2
2022/03/14 00:01:38;;;;;;;23.98;18.27;;;;;;;10.84;49.37;100536.47;5010823;28;20475;-81
2022/03/14 00:04:04;;;;;;;26.90;17.97;;;;;;;10.95;50.54;100560.00;5011746;28;20901;-82
2022/03/14 00:06:29;;;;;;;20.03;17.00;;;;;;;10.99;51.88;100573.88;5025259;28;20417;-81
2022/03/14 00:08:57;;;;;;;23.35;16.20;;;;;;;10.99;53.51;100587.44;5013121;28;20768;-82
2022/03/14 00:11:24;;;;;;;20.20;15.93;;;;;;;10.97;55.21;100594.97;5011707;28;20550;-81
2022/03/14 00:13:50;;;;;;;18.17;14.43;;;;;;;10.98;56.74;100608.31;5010231;28;20424;-81
2022/03/14 00:16:28;;;;;;;16.92;13.25;;;;;;;11.00;58.88;100627.84;5013165;28;20439;-81
2022/03/14 00:18:55;;;;;;;19.13;12.93;;;;;;;11.01;60.83;100644.94;5008937;28;20436;-82
2022/03/14 00:21:25;;;;;;;13.90;12.50;;;;;;;11.00;63.69;100651.47;5010726;28;20882;-81
2022/03/14 00:23:55;;;;;;;15.77;12.52;;;;;;;10.88;65.91;100665.06;5010176;28;20431;-82
2022/03/14 00:26:26;;;;;;;12.02;10.77;;;;;;;10.85;66.67;100670.97;5013311;28;20412;-82
2022/03/14 00:28:51;;;;;;;10.05;9.07;;;;;;;10.93;66.47;100684.94;5012991;28;20409;-82
2022/03/14 00:31:18;;;;;;;9.20;7.30;;;;;;;10.99;66.16;100691.31;5012243;28;20895;-82
2022/03/14 00:33:43;;;;;;;4.90;4.15;;;;;;;10.92;65.33;100701.47;5011953;28;20404;-82
2022/03/14 00:36:09;;;;;;;6.00;3.27;;;;;;;10.83;65.25;100708.34;5027027;28;20915;-82
2022/03/14 00:38:39;;;;;;;3.53;3.03;;;;;;;10.73;65.44;100724.41;5012654;28;20405;-81
2022/03/14 00:41:05;;;;;;;4.90;2.88;;;;;;;10.63;66.22;100722.31;5021399;28;20550;-82
2022/03/14 00:43:31;;;;;;;2.60;2.50;;;;;;;10.57;67.05;100725.16;5011433;28;20416;-81
2022/03/14 00:45:56;;;;;;;2.95;2.70;;;;;;;10.53;67.67;100735.63;5013037;28;20408;-82
2022/03/14 00:48:22;;;;;;;3.00;2.80;;;;;;;10.40;69.30;100749.44;5009462;28;20554;-82
2022/03/14 00:50:47;;;;;;;2.70;2.50;;;;;;;10.38;70.05;100746.94;5012791;28;20405;-82
2022/03/14 00:53:13;;;;;;;2.17;2.07;;;;;;;10.40;70.71;100762.97;5010975;28;20522;-82
2022/03/14 00:55:38;;;;;;;2.47;2.07;;;;;;;10.51;70.49;100764.00;5012652;28;20412;-82
2022/03/14 00:58:03;;;;;;;2.10;2.00;;;;;;;10.43;70.57;100765.22;5010295;28;20420;-83
2022/03/14 01:00:28;;;;;;;1.87;1.77;;;;;;;10.31;71.51;100775.19;5012832;28;20432;-83
2022/03/14 01:02:54;;;;;;;1.73;1.63;;;;;;;10.14;72.23;100785.91;5009846;28;20409;-83
2022/03/14 01:05:19;;;;;;;1.90;1.73;;;;;;;10.16;72.59;100793.81;5010118;28;20435;-83
2022/03/14 01:07:45;;;;;;;2.10;1.40;;;;;;;10.08;72.91;100797.66;5010313;28;20796;-83
2022/03/14 01:10:10;;;;;;;3.60;1.55;;;;;;;10.04;73.80;100807.31;5012643;28;20401;-83
2022/03/14 01:12:36;;;;;;;1.37;1.30;;;;;;;9.82;74.77;100811.59;5011493;28;20482;-83
2022/03/14 01:15:03;;;;;;;1.65;1.40;;;;;;;9.75;75.91;100816.28;5010229;28;20413;-85
2022/03/14 01:17:28;;;;;;;1.55;1.27;;;;;;;9.78;75.79;100824.78;5012435;28;20413;-84
2022/03/14 01:19:53;;;;;;;2.67;1.30;;;;;;;9.74;76.71;100825.47;5003650;28;20409;-84
2022/03/14 01:22:19;;;;;;;2.83;1.43;;;;;;;9.74;76.45;100831.72;5023795;28;20414;-84
2022/03/14 01:24:44;;;;;;;1.27;1.27;;;;;;;9.65;77.14;100849.31;5011389;28;20400;-83
2022/03/14 01:27:10;;;;;;;1.37;1.30;;;;;;;9.66;77.30;100845.56;5008674;28;20441;-82
2022/03/14 01:29:35;;;;;;;1.25;1.25;;;;;;;9.72;77.10;100851.94;5010317;28;20417;-82
2022/03/14 01:32:02;;;;;;;1.10;1.10;;;;;;;9.74;77.36;100847.97;5011135;28;20397;-83
2022/03/14 01:34:28;;;;;;;1.20;1.20;;;;;;;9.67;77.37;100855.34;5009085;28;20457;-83
2022/03/14 01:36:53;;;;;;;2.67;1.77;;;;;;;9.45;78.22;100854.16;5012339;28;20878;-82
2022/03/14 01:39:18;;;;;;;1.00;1.00;;;;;;;9.52;77.86;100864.91;5011349;28;20405;-83
2022/03/14 01:41:44;;;;;;;1.20;1.10;;;;;;;9.40;78.25;100859.44;5009343;28;20973;-83
2022/03/14 01:44:09;;;;;;;0.80;0.80;;;;;;;9.37;78.83;100866.13;5011440;28;20400;-82
2022/03/14 01:46:35;;;;;;;0.60;0.60;;;;;;;9.22;78.96;100862.19;5011913;28;20507;-82
2022/03/14 01:49:00;;;;;;;0.60;0.60;;;;;;;9.37;78.41;100873.41;5011871;28;20401;-82
2022/03/14 01:51:26;;;;;;;0.60;0.60;;;;;;;9.35;77.81;100873.63;5009138;28;20400;-82
2022/03/14 01:53:52;;;;;;;0.57;0.57;;;;;;;9.31;77.87;100872.47;5008516;28;20846;-82
2022/03/14 01:56:18;;;;;;;0.55;0.55;;;;;;;9.31;77.83;100879.75;5011922;28;20495;-82
2022/03/14 01:58:46;;;;;;;1.80;0.60;;;;;;;9.20;78.15;100889.44;5009839;28;20412;-82
2022/03/14 02:01:12;;;;;;;0.30;0.30;;;;;;;9.36;77.75;100888.81;5010561;28;20741;-83
2022/03/14 02:03:37;;;;;;;1.20;0.47;;;;;;;9.43;77.42;100883.31;5011426;28;20459;-82
2022/03/14 02:06:03;;;;;;;0.40;0.33;;;;;;;9.36;77.17;100894.22;5011457;28;20412;-82
2022/03/14 02:08:28;;;;;;;0.80;0.30;;;;;;;9.34;77.05;100895.50;5009427;28;20424;-82
2022/03/14 02:10:53;;;;;;;0.40;0.30;;;;;;;9.41;76.91;100900.84;5011746;28;20742;-82
2022/03/14 02:13:19;;;;;;;0.30;0.30;;;;;;;9.44;77.00;100903.09;5005406;28;20523;-82
2022/03/14 02:15:45;;;;;;;0.57;0.30;;;;;;;9.27;77.59;100909.13;5011791;28;20884;-83
2022/03/14 02:18:11;;;;;;;0.30;0.20;;;;;;;9.15;77.68;100913.63;5008408;28;20424;-82
2022/03/14 02:20:36;;;;;;;0.30;0.30;;;;;;;9.16;78.32;100899.03;5011862;28;20453;-83
2022/03/14 02:23:01;;;;;;;0.20;0.20;;;;;;;9.09;78.97;100902.88;5021126;28;20401;-83
2022/03/14 02:25:27;;;;;;;0.20;0.20;;;;;;;9.11;78.81;100907.00;5011681;28;20408;-82
2022/03/14 02:27:52;;;;;;;0.93;0.50;;;;;;;9.11;79.14;100912.41;5008728;28;20435;-83
2022/03/14 02:30:18;;;;;;;0.40;0.40;;;;;;;9.08;79.64;100909.34;5009279;28;20419;-82
2022/03/14 02:32:45;;;;;;;0.70;0.40;;;;;;;9.07;79.77;100916.59;5009407;28;20420;-82
2022/03/14 02:35:12;;;;;;;1.00;0.73;;;;;;;9.09;79.59;100914.50;5011544;28;20757;-82
2022/03/14 02:37:38;;;;;;;0.30;0.30;;;;;;;9.15;79.88;100924.44;5010232;28;20772;-82
2022/03/14 02:40:05;;;;;;;0.40;0.40;;;;;;;9.07;79.75;100924.72;5009740;28;20415;-82
2022/03/14 02:42:31;;;;;;;1.00;0.30;;;;;;;9.23;79.83;100932.25;5008702;28;20421;-82
2022/03/14 02:44:56;;;;;;;0.33;0.33;;;;;;;9.22;79.28;100940.59;5009788;28;20764;-82
2022/03/14 02:47:22;;;;;;;0.43;0.43;;;;;;;9.22;79.73;100946.81;5011172;28;20427;-82
2022/03/14 02:49:48;;;;;;;1.00;0.37;;;;;;;9.29;79.38;100949.44;5008960;28;20440;-82
2022/03/14 02:52:13;;;;;;;0.30;0.20;;;;;;;9.29;79.56;100952.16;5002617;28;20403;-82
2022/03/14 02:54:40;;;;;;;0.30;0.30;;;;;;;9.21;79.68;100961.41;5010739;28;20397;-82
2022/03/14 02:57:05;;;;;;;0.80;0.50;;;;;;;9.26;79.43;100958.00;5009980;28;20405;-82
2022/03/14 02:59:31;;;;;;;0.50;0.50;;;;;;;9.32;79.61;100963.34;5011247;28;20415;-82
2022/03/14 03:01:57;;;;;;;0.47;0.47;;;;;;;9.33;79.66;100978.53;5011239;28;20451;-82
2022/03/14 03:04:22;;;;;;;0.80;0.50;;;;;;;9.22;79.75;100976.56;5009797;28;20411;-82
2022/03/14 03:06:47;;;;;;;0.60;0.40;;;;;;;9.23;80.26;100989.03;5012179;28;20420;-81
2022/03/14 03:09:13;;;;;;;0.50;0.50;;;;;;;9.33;79.95;100980.41;5014636;28;20412;-82
2022/03/14 03:11:40;;;;;;;0.60;0.60;;;;;;;9.31;79.83;100993.34;5013158;28;20465;-82
2022/03/14 03:14:06;;;;;;;0.60;0.60;;;;;;;9.41;79.64;100999.06;5013235;28;20407;-82
2022/03/14 03:16:34;;;;;;;0.73;0.73;;;;;;;9.49;79.29;100997.91;5029062;28;20456;-82
2022/03/14 03:19:00;;;;;;;0.60;0.60;;;;;;;9.37;80.31;101001.38;5011911;28;20887;-82
2022/03/14 03:21:25;;;;;;;1.07;0.97;;;;;;;9.47;79.38;101017.09;5014582;28;20454;-82
2022/03/14 03:23:50;;;;;;;1.30;1.00;;;;;;;9.52;79.80;101021.81;5014224;28;20432;-82
2022/03/14 03:26:16;;;;;;;1.10;0.90;;;;;;;9.55;79.61;101029.50;5013541;28;20954;-82
2022/03/14 03:28:42;;;;;;;1.42;1.42;;;;;;;9.56;79.87;101031.16;5028835;28;20401;-82
2022/03/14 03:31:11;;;;;;;1.50;1.50;;;;;;;9.49;79.63;101028.50;5013567;28;20906;-82
2022/03/14 03:33:37;;;;;;;1.88;1.77;;;;;;;9.42;80.21;101035.84;5021919;28;20412;-82
2022/03/14 03:36:05;;;;;;;1.87;1.77;;;;;;;9.34;80.48;101036.16;5014345;28;20734;-82
2022/03/14 03:38:30;;;;;;;1.75;1.55;;;;;;;9.23;81.22;101047.69;5011367;28;20494;-82
2022/03/14 03:40:56;;;;;;;3.83;1.77;;;;;;;9.10;81.61;101043.25;5025819;28;20863;-83
2022/03/14 03:43:21;;;;;;;1.83;1.70;;;;;;;9.03;82.03;101038.94;5018131;28;21019;-83
2022/03/14 03:45:47;;;;;;;2.20;1.80;;;;;;;8.88;82.29;101036.56;5012517;28;20450;-82
2022/03/14 03:48:12;;;;;;;1.58;1.52;;;;;;;8.97;82.78;101034.41;5012529;28;20421;-82
2022/03/14 03:50:37;;;;;;;1.50;1.40;;;;;;;8.89;82.28;101035.53;5022353;28;20408;-83
2022/03/14 03:53:03;;;;;;;2.17;1.50;;;;;;;8.76;82.90;101043.69;5021305;28;20497;-83
2022/03/14 03:55:28;;;;;;;1.47;1.37;;;;;;;8.72;82.67;101046.03;5013470;28;20407;-82
2022/03/14 03:57:53;;;;;;;1.17;1.17;;;;;;;8.79;81.97;101037.88;5012034;28;20502;-82
2022/03/14 04:00:19;;;;;;;1.10;1.10;;;;;;;8.80;82.35;101050.34;5013985;28;20416;-83
2022/03/14 04:02:45;;;;;;;2.20;1.27;;;;;;;8.75;82.69;101052.88;5013534;28;20411;-82
2022/03/14 04:05:17;;;;;;;0.97;0.93;;;;;;;8.75;82.79;101055.56;5012128;28;20488;-82
2022/03/14 04:07:44;;;;;;;1.20;1.20;;;;;;;8.80;82.35;101061.13;5010692;28;20916;-82
2022/03/14 04:10:12;;;;;;;1.08;1.00;;;;;;;8.65;82.77;101055.22;5013527;28;20440;-82
2022/03/14 04:12:39;;;;;;;0.77;0.77;;;;;;;8.67;83.53;101062.06;5012422;28;20411;-82
2022/03/14 04:15:09;;;;;;;1.08;0.70;;;;;;;8.66;82.63;101065.00;5011530;28;20416;-82
2022/03/14 04:17:35;;;;;;;0.80;0.80;;;;;;;8.70;82.18;101074.31;5013526;28;20397;-81
2022/03/14 04:20:09;;;;;;;1.50;0.80;;;;;;;8.57;82.64;101085.19;5007879;28;20899;-82
2022/03/14 04:22:39;;;;;;;0.77;0.77;;;;;;;8.73;82.34;101095.47;5012442;28;20500;-82
2022/03/14 04:25:06;;;;;;;1.35;0.73;;;;;;;8.59;82.28;101102.03;5011901;28;20773;-81
2022/03/14 04:27:32;;;;;;;0.70;0.70;;;;;;;8.73;82.10;101114.41;5011186;28;20416;-82
2022/03/14 04:29:57;;;;;;;0.70;0.70;;;;;;;8.75;81.98;101120.44;5012294;28;20974;-81
2022/03/14 04:32:23;;;;;;;0.70;0.70;;;;;;;8.76;81.93;101122.91;5013563;28;20407;-82
2022/03/14 04:34:49;;;;;;;1.20;0.50;;;;;;;8.84;81.42;101125.38;5008733;28;20463;-82
2022/03/14 04:37:14;;;;;;;0.70;0.70;;;;;;;8.77;81.27;101138.09;5010544;28;20408;-82
2022/03/14 04:39:41;;;;;;;0.80;0.80;;;;;;;8.82;81.65;101140.16;5012857;28;20415;-81
2022/03/14 04:42:07;;;;;;;0.85;0.70;;;;;;;8.81;81.60;101143.88;5011529;28;20517;-82
2022/03/14 04:44:33;;;;;;;0.65;0.65;;;;;;;8.79;81.47;101141.38;5012062;28;20450;-82
2022/03/14 04:46:58;;;;;;;0.83;0.83;;;;;;;8.76;81.50;101144.53;5011817;28;20424;-81
2022/03/14 04:49:23;;;;;;;0.67;0.67;;;;;;;8.68;81.52;101157.47;5031759;28;20415;-82
2022/03/14 04:51:50;;;;;;;0.67;0.67;;;;;;;8.74;81.65;101156.59;5031295;28;20407;-82
2022/03/14 04:54:15;;;;;;;0.60;0.57;;;;;;;8.66;81.15;101168.47;5032567;28;20418;-82
2022/03/14 04:56:40;;;;;;;1.20;0.70;;;;;;;8.67;82.19;101174.72;5029583;28;20411;-81
2022/03/14 04:59:06;;;;;;;1.00;1.00;;;;;;;8.60;82.02;101172.03;5026639;28;20403;-81
2022/03/14 05:01:31;;;;;;;2.72;2.63;;;;;;;8.61;82.08;101178.28;5036060;28;20455;-82
2022/03/14 05:04:00;;;;;;;2.00;1.90;;;;;;;8.60;82.36;101174.75;5035352;28;20732;-82
2022/03/14 05:06:27;;;;;;;2.40;1.20;;;;;;;8.60;81.95;101177.44;5030876;28;20422;-81
2022/03/14 05:08:53;;;;;;;2.70;2.45;;;;;;;8.68;81.62;101174.50;5030911;28;20422;-81
2022/03/14 05:11:21;;;;;;;6.28;4.15;;;;;;;8.60;81.90;101179.31;5030092;28;20902;-82
2022/03/14 05:13:47;;;;;;;5.72;3.40;;;;;;;8.59;82.07;101177.69;5021727;28;20967;-81
2022/03/14 05:16:12;;;;;;;4.55;3.03;;;;;;;8.52;82.12;101179.56;5026357;28;20434;-81
2022/03/14 05:18:38;;;;;;;9.80;4.40;;;;;;;8.58;82.13;101187.66;5029995;28;20399;-81
2022/03/14 05:21:04;;;;;;;1.85;1.60;;;;;;;8.67;81.54;101196.31;5030024;28;20493;-81
2022/03/14 05:23:29;;;;;;;1.40;1.30;;;;;;;8.68;81.55;101198.00;5028057;28;20986;-82
2022/03/14 05:25:55;;;;;;;1.97;1.20;;;;;;;8.68;81.12;101206.09;5030849;28;20406;-81
2022/03/14 05:28:21;;;;;;;8.93;5.50;;;;;;;8.53;81.86;101213.66;5030089;28;20429;-81
2022/03/14 05:30:46;;;;;;;3.67;2.27;;;;;;;8.61;81.68;101213.41;5025533;28;20399;-81
2022/03/14 05:33:11;;;;;;;5.70;3.30;;;;;;;8.64;81.48;101215.69;5030983;28;20442;-81
2022/03/14 05:35:37;;;;;;;3.97;2.20;;;;;;;8.54;81.96;101221.53;5033251;28;20417;-81
2022/03/14 05:38:02;;;;;;;3.43;2.33;;;;;;;8.50;81.75;101227.56;5031120;28;20411;-79
2022/03/14 05:40:28;;;;;;;3.80;2.35;;;;;;;8.49;82.05;101234.03;5022371;28;20412;-81
2022/03/14 05:42:53;;;;;;;4.97;3.03;;;;;;;8.62;81.90;101236.69;5029668;28;20426;-83
2022/03/14 05:45:20;;;;;;;5.10;3.47;;;;;;;8.52;82.00;101250.63;5025021;28;20438;-82
2022/03/14 05:47:46;;;;;;;7.75;4.30;;;;;;;8.58;81.60;101249.78;5030370;28;20419;-82
2022/03/14 05:50:12;;;;;;;5.32;2.20;;;;;;;8.69;81.49;101251.00;5030140;28;20426;-78
2022/03/14 05:52:38;;;;;;;5.15;3.38;;;;;;;8.66;81.27;101262.25;5028683;28;20882;-81
2022/03/14 05:55:05;;;;;;;10.52;5.53;;;;;;;8.63;81.49;101259.94;5030826;28;20889;-81
2022/03/14 05:57:31;;;;;;;6.00;3.83;;;;;;;8.56;82.06;101270.75;5030833;28;20455;-82
2022/03/14 05:59:57;;;;;;;3.63;2.23;;;;;;;8.56;82.50;101270.75;5031146;28;20422;-82
2022/03/14 06:02:23;;;;;;;2.30;1.47;;;;;;;8.72;82.14;101267.63;5031340;28;20953;-81
2022/03/14 06:04:50;;;;;;;1.80;1.70;;;;;;;8.66;82.27;101278.44;5031558;28;20502;-81
2022/03/14 06:07:15;;;;;;;3.30;1.63;;;;;;;8.69;82.07;101276.13;5029434;28;20423;-80
2022/03/14 06:09:40;;;;;;;3.27;1.30;;;;;;;8.67;81.64;101277.38;5031519;28;20430;-81
2022/03/14 06:12:06;;;;;;;3.77;1.30;;;;;;;8.68;82.34;101289.88;5031117;28;20401;-80
2022/03/14 06:14:32;;;;;;;4.78;2.08;;;;;;;8.67;81.59;101290.91;5029956;28;20403;-83
2022/03/14 06:16:57;;;;;;;5.07;2.40;;;;;;;8.47;82.85;101284.72;5031354;28;20439;-83
2022/03/14 06:19:23;;;;;;;5.10;1.90;;;;;;;8.43;83.29;101288.91;5031103;28;20887;-82
2022/03/14 06:21:50;;;;;;;7.97;3.60;;;;;;;8.46;82.88;101286.59;5029502;28;20453;-83
2022/03/14 06:24:16;;;;;;;6.00;2.60;;;;;;;8.51;83.07;101302.16;5031198;28;20391;-86
2022/03/14 06:26:41;;;;;;;4.38;2.10;;;;;;;8.50;83.09;101306.72;5029607;28;20833;-84
2022/03/14 06:29:07;;;;;;;4.33;1.97;;;;;;;8.60;83.13;101307.13;5038877;28;20435;-84
2022/03/14 06:31:33;;;;;;;5.57;2.57;;;;;;;8.80;82.04;101309.78;5031316;28;20426;-83
2022/03/14 06:33:59;;;;;;;5.37;2.30;;;;;;;8.61;82.12;101311.50;5031067;28;20486;-83
2022/03/14 06:36:26;;;;;;;4.40;2.50;;;;;;;8.51;82.71;101308.41;5028743;28;20395;-81
2022/03/14 06:38:53;;;;;;;3.95;2.63;;;;;;;8.67;81.57;101312.53;5030446;28;20431;-82
2022/03/14 06:41:19;;;;;;;6.73;2.87;;;;;;;8.77;81.61;101310.22;5035095;28;20488;-83
2022/03/14 06:43:44;;;;;;;6.47;4.35;;;;;;;8.76;81.21;101320.19;5033445;28;20407;-82
2022/03/14 06:46:09;;;;;;;3.57;1.70;;;;;;;8.73;81.83;101320.59;5033391;28;20399;-83
2022/03/14 06:48:40;;;;;;;4.30;1.00;;;;;;;8.72;81.39;101326.25;5033694;28;20403;-82
2022/03/14 06:51:06;;;;;;;2.17;1.20;;;;;;;8.60;81.54;101330.59;5032358;28;20432;-81
2022/03/14 06:53:31;;;;;;;3.20;1.20;;;;;;;8.59;81.84;101331.69;5032989;28;20449;-83
2022/03/14 06:55:56;;;;;;;1.20;0.93;;;;;;;8.55;81.67;101333.13;5032100;28;20938;-81
2022/03/14 06:58:22;;;;;;;4.50;1.23;;;;;;;8.62;81.03;101328.56;5029026;28;21024;-81
2022/03/14 07:00:48;;;;;;;2.83;1.85;;;;;;;8.61;80.78;101332.28;5036004;28;20406;-82
2022/03/14 07:03:14;;;;;;;3.70;1.10;;;;;;;8.56;81.55;101338.31;5041834;28;20397;-82
2022/03/14 07:05:40;;;;;;;3.15;1.00;;;;;;;8.51;81.40;101350.78;5035106;28;20425;-81
2022/03/14 07:08:05;;;;;;;2.15;1.05;;;;;;;8.42;81.20;101360.16;5030535;28;20426;-81
2022/03/14 07:10:30;;;;;;;2.87;1.10;;;;;;;8.49;82.35;101356.41;5032966;28;20426;-81
2022/03/14 07:12:56;;;;;;;2.23;1.37;;;;;;;8.59;81.91;101366.78;5030034;28;20411;-81
2022/03/14 07:15:22;;;;;;;2.78;0.95;;;;;;;8.80;81.83;101363.84;5029909;28;20763;-81
2022/03/14 07:17:48;;;;;;;5.63;3.00;;;;;;;9.04;80.24;101379.38;5032773;28;20419;-81
2022/03/14 07:20:14;;;;;;;2.70;1.20;;;;;;;9.07;79.69;101378.94;5031013;28;20494;-85
2022/03/14 07:22:57;;;;;;;1.83;1.13;;;;;;;8.83;79.61;101387.75;5032962;28;20493;-81
2022/03/14 07:25:25;;;;;;;1.65;1.15;;;;;;;8.78;79.84;101396.50;5032587;28;20402;-82
2022/03/14 07:27:51;;;;;;;2.63;1.40;;;;;;;8.77;79.87;101397.53;5033725;28;20426;-81
2022/03/14 07:30:17;;;;;;;4.63;1.35;;;;;;;8.94;79.33;101397.91;5036970;28;20395;-81
2022/03/14 07:32:42;;;;;;;1.67;0.93;;;;;;;8.97;78.91;101399.34;5031809;28;20410;-82
2022/03/14 07:35:09;;;;;;;2.20;0.90;;;;;;;8.98;79.11;101406.44;5030096;28;20410;-80
2022/03/14 07:37:35;;;;;;;1.92;0.75;;;;;;;9.10;78.69;101405.56;5029592;28;20929;-81
2022/03/14 07:40:00;;;;;;;1.83;0.95;;;;;;;9.06;77.54;101398.06;5031801;28;20403;-81
2022/03/14 07:42:27;;;;;;;0.97;0.60;;;;;;;9.09;77.26;101398.50;5031244;28;20878;-81
2022/03/14 07:44:52;;;;;;;2.20;0.85;;;;;;;8.93;77.03;101407.06;5030051;28;20441;-81
2022/03/14 07:47:17;;;;;;;1.77;1.27;;;;;;;8.95;77.20;101414.97;5025457;28;20454;-81
2022/03/14 07:49:43;;;;;;;1.80;1.30;;;;;;;8.77;77.84;101418.31;5048124;28;20402;-82
2022/03/14 07:52:08;;;;;;;2.75;0.60;;;;;;;8.89;78.14;101418.53;5031115;28;20399;-81
2022/03/14 07:54:34;;;;;;;1.33;0.90;;;;;;;9.08;77.63;101421.19;5030104;28;20421;-81
2022/03/14 07:56:59;;;;;;;1.20;1.00;;;;;;;9.37;76.74;101420.69;5025001;28;20514;-81
2022/03/14 07:59:24;;;;;;;2.17;0.80;;;;;;;9.50;76.28;101429.78;5032411;28;20899;-81
2022/03/14 08:01:50;;;;;;;1.27;1.13;;;;;;;9.51;76.11;101429.59;5031418;28;20403;-81
2022/03/14 08:04:15;;;;;;;2.92;1.20;;;;;;;9.59;76.41;101436.59;5031841;28;20426;-81
2022/03/14 08:06:42;;;;;;;1.00;0.83;;;;;;;9.76;75.62;101449.44;5032068;28;20477;-81
2022/03/14 08:09:08;;;;;;;4.85;1.10;;;;;;;10.00;74.41;101447.03;5031930;28;20399;-81
2022/03/14 08:11:35;;;;;;;1.67;0.93;;;;;;;10.31;73.41;101450.59;5046763;28;20486;-81
2022/03/14 08:14:02;;;;;;;3.47;0.80;;;;;;;10.12;73.45;101454.25;5034653;28;20437;-82
2022/03/14 08:16:27;;;;;;;2.05;1.35;;;;;;;10.06;73.94;101460.53;5039678;28;20415;-81
2022/03/14 08:18:53;;;;;;;2.22;0.93;;;;;;;10.19;73.98;101456.94;5031722;28;20425;-81
2022/03/14 08:21:21;;;;;;;1.67;0.80;;;;;;;10.47;72.20;101454.69;5031065;28;20415;-81
2022/03/14 08:23:47;;;;;;;1.95;1.48;;;;;;;10.30;71.67;101457.09;5027219;28;20414;-82
2022/03/14 08:26:12;;;;;;;3.67;1.38;;;;;;;10.28;72.74;101448.34;5027138;28;20418;-80
2022/03/14 08:28:39;;;;;;;1.87;1.23;;;;;;;10.26;71.79;101453.16;5038863;28;20953;-81
2022/03/14 08:31:05;;;;;;;2.38;1.38;;;;;;;10.37;71.83;101451.63;5032197;28;20407;-80
2022/03/14 08:33:31;;;;;;;1.95;1.13;;;;;;;10.33;72.40;101467.50;5033942;28;20405;-80
2022/03/14 08:36:00;;;;;;;3.58;1.13;;;;;;;10.47;72.02;101470.09;5031876;28;20404;-80
2022/03/14 08:38:26;;;;;;;4.82;1.30;;;;;;;10.41;71.93;101475.34;5032127;28;20426;-80
2022/03/14 08:40:51;;;;;;;2.73;0.97;;;;;;;10.36;72.03;101477.88;5032713;28;20399;-82
2022/03/14 08:43:16;;;;;;;1.63;1.20;;;;;;;10.72;71.47;101468.22;5031553;28;20479;-80
2022/03/14 08:45:43;;;;;;;2.60;1.20;;;;;;;10.80;69.57;101466.06;5032328;28;20457;-80
2022/03/14 08:48:11;;;;;;;2.22;1.33;;;;;;;10.70;70.44;101478.47;5032050;28;20821;-81
2022/03/14 08:50:38;;;;;;;2.30;0.90;;;;;;;10.78;69.24;101479.03;5031611;28;20409;-81
2022/03/14 08:53:03;;;;;;;4.50;1.33;;;;;;;11.43;68.33;101482.13;5030277;28;20867;-81
2022/03/14 08:55:28;;;;;;;1.03;0.83;;;;;;;12.18;65.32;101477.28;5037078;28;20490;-82
2022/03/14 08:57:54;;;;;;;2.80;1.23;;;;;;;12.22;64.44;101465.69;5032489;28;20489;-82
2022/03/14 09:00:19;;;;;;;3.65;1.40;;;;;;;12.35;63.53;101470.94;5032730;28;20905;-80
2022/03/14 09:02:45;;;;;;;4.70;1.20;;;;;;;11.98;63.32;101480.28;5032164;28;20407;-80
2022/03/14 09:05:10;;;;;;;3.37;1.80;;;;;;;11.64;64.33;101481.69;5030502;28;20509;-80
2022/03/14 09:07:36;;;;;;;3.63;1.77;;;;;;;11.50;64.10;101482.06;5032054;28;20427;-80
2022/03/14 09:10:05;;;;;;;3.08;1.58;;;;;;;11.35;64.68;101494.13;5031897;28;20403;-80
2022/03/14 09:12:34;;;;;;;3.50;1.63;;;;;;;11.31;65.42;101489.38;5032021;28;20399;-81
2022/03/14 09:15:00;;;;;;;2.50;0.97;;;;;;;11.25;65.22;101493.81;5032534;28;20461;-81
2022/03/14 09:17:26;;;;;;;4.38;1.67;;;;;;;11.27;65.11;101494.41;5026823;28;20407;-81
2022/03/14 09:19:51;;;;;;;4.30;2.25;;;;;;;11.39;64.85;101497.25;5028269;28;20486;-80
2022/03/14 09:22:18;;;;;;;4.13;1.20;;;;;;;11.86;62.63;101499.22;5031168;28;20851;-81
2022/03/14 09:24:45;;;;;;;2.35;1.08;;;;;;;12.43;60.36;101492.38;5032126;28;20778;-81
2022/03/14 09:27:11;;;;;;;5.93;1.67;;;;;;;12.62;60.21;101495.84;5037053;28;20407;-81
2022/03/14 09:29:37;;;;;;;4.47;1.73;;;;;;;12.78;59.99;101500.59;5032482;28;20403;-81
2022/03/14 09:32:02;;;;;;;3.93;1.50;;;;;;;13.30;58.31;101503.53;5047162;28;20534;-81
2022/03/14 09:34:27;;;;;;;5.38;2.17;;;;;;;14.23;55.28;101497.81;5031497;28;21249;-81
2022/03/14 09:36:55;;;;;;;2.97;1.23;;;;;;;14.04;54.91;101497.19;5030995;28;20421;-82
2022/03/14 09:39:21;;;;;;;3.25;1.67;;;;;;;14.50;53.81;101501.66;5031389;28;20399;-80
2022/03/14 09:41:51;;;;;;;3.63;1.37;;;;;;;15.39;51.67;101494.34;5046195;28;20461;-81
2022/03/14 09:44:20;;;;;;;7.07;1.40;;;;;;;15.96;49.05;101498.44;5029517;28;20407;-81
2022/03/14 09:46:48;;;;;;;3.53;1.30;;;;;;;15.94;49.28;101503.31;5027777;28;20446;-80
2022/03/14 09:49:15;;;;;;;2.28;1.27;;;;;;;16.05;48.39;101509.72;5030167;28;20407;-82
2022/03/14 09:51:42;;;;;;;6.30;1.90;;;;;;;17.15;46.81;101517.41;5038443;28;20413;-80
2022/03/14 09:54:09;;;;;;;5.18;1.73;;;;;;;17.81;44.56;101523.31;5034168;28;20434;-80
2022/03/14 09:56:36;;;;;;;4.18;1.70;;;;;;;18.89;42.91;101541.47;5031250;28;20441;-81
2022/03/14 09:59:02;;;;;;;4.07;2.15;;;;;;;19.77;39.71;101527.34;5031048;28;20953;-82
2022/03/14 10:01:28;;;;;;;2.80;0.87;;;;;;;21.98;36.70;101529.56;5031220;28;20486;-81
2022/03/14 10:03:55;;;;;;;4.30;1.33;;;;;;;22.42;34.50;101534.78;5030014;28;20422;-79
2022/03/14 10:06:23;;;;;;;5.18;1.80;;;;;;;22.80;34.54;101535.63;5026052;28;20417;-81
2022/03/14 10:08:48;;;;;;;3.03;1.40;;;;;;;22.37;34.25;101543.97;5028326;28;20410;-83
2022/03/14 10:11:14;;;;;;;3.20;1.17;;;;;;;20.65;37.79;101539.31;5039817;28;20930;-82
2022/03/14 10:13:39;;;;;;;1.95;0.98;;;;;;;23.67;32.78;101547.69;5030938;28;20421;-82
2022/03/14 10:16:06;;;;;;;3.77;1.10;;;;;;;25.95;28.25;101538.34;5031503;28;20494;-82
2022/03/14 10:18:37;;;;;;;3.85;1.23;;;;;;;24.94;29.60;101534.69;5029694;28;20418;-83
2022/03/14 10:21:06;;;;;;;2.85;1.70;;;;;;;25.46;28.92;101531.09;5029860;28;20437;-75
2022/03/14 10:23:41;;;;;;;2.75;1.40;;;;;;;25.64;27.77;101530.06;5025776;28;20412;-76
2022/03/14 10:26:10;;;;;;;3.75;1.40;;;;;;;27.49;25.47;101553.50;5028589;28;20495;-79
2022/03/14 10:28:38;;;;;;;3.63;1.30;;;;;;;29.83;23.23;101539.13;5025594;28;20417;-79
2022/03/14 10:31:04;;;;;;;2.95;1.80;;;;;;;30.55;21.93;101548.63;5045676;28;20414;-78
2022/03/14 10:33:31;;;;;;;3.35;1.30;;;;;;;29.82;22.20;101548.63;5031441;28;20906;-79
2022/03/14 10:35:57;;;;;;;6.75;4.57;;;;;;;27.21;24.76;101556.66;5030358;28;20921;-80
2022/03/14 10:38:24;;;;;;;1.98;1.15;;;;;;;24.15;28.53;101548.09;5031238;28;20399;-80
2022/03/14 10:40:51;;;;;;;4.03;1.70;;;;;;;21.78;32.18;101558.19;5031026;28;20875;-81
2022/03/14 10:43:26;;;;;;;6.25;1.17;;;;;;;18.90;37.52;101565.06;5031163;28;20405;-85
2022/03/14 10:45:57;;;;;;;2.90;1.20;;;;;;;16.95;41.40;101559.16;5030405;28;20513;-82
2022/03/14 10:48:38;;;;;;;3.40;1.35;;;;;;;15.97;43.72;101554.75;5025019;28;20416;-81
2022/03/14 10:51:14;;;;;;;4.95;1.85;;;;;;;14.90;47.26;101567.03;5029207;28;20495;-83
2022/03/14 10:53:45;;;;;;;4.15;1.67;;;;;;;14.82;47.61;101567.44;5028044;28;20406;-83
2022/03/14 10:56:11;;;;;;;5.90;1.90;;;;;;;14.79;48.03;101560.56;5037501;28;20408;-83
2022/03/14 10:58:37;;;;;;;6.10;1.67;;;;;;;14.66;48.60;101565.47;5032367;28;20395;-82
2022/03/14 11:01:05;;;;;;;5.23;2.13;;;;;;;14.08;49.34;101565.69;5030971;28;20402;-83
2022/03/14 11:03:32;;;;;;;4.25;1.85;;;;;;;13.69;50.58;101568.13;5029729;28;20449;-82
2022/03/14 11:06:03;;;;;;;6.53;1.80;;;;;;;14.06;50.88;101555.03;5029351;28;20429;-81
2022/03/14 11:08:33;;;;;;;5.50;1.92;;;;;;;18.96;40.47;101553.03;5029900;28;20419;-83
2022/03/14 11:11:00;;;;;;;3.63;1.50;;;;;;;20.56;35.97;101543.81;5045974;28;20414;-83
2022/03/14 11:13:26;;;;;;;4.57;1.13;;;;;;;20.60;35.78;101553.97;5039733;28;20411;-83
2022/03/14 11:15:52;;;;;;;4.32;1.08;;;;;;;23.55;29.31;101550.94;5033941;28;20510;-84
2022/03/14 11:18:18;;;;;;;8.43;2.80;;;;;;;22.94;29.97;101545.63;5030964;28;20403;-82
2022/03/14 11:20:44;;;;;;;4.55;1.38;;;;;;;23.84;28.57;101536.84;5029656;28;20727;-81
2022/03/14 11:23:10;;;;;;;4.18;1.77;;;;;;;24.17;27.49;101540.31;5030553;28;20402;-83
2022/03/14 11:25:38;;;;;;;4.80;2.00;;;;;;;21.86;31.12;101543.78;5025197;28;20407;-83